Terminal Aerodrome Forecast
Issued by NWS

Home | Current Version | Previous Version | Graphics & Text | Print | Product List | Glossary On
Versions: 1 2 3 4 5 6 7 8 9 10 11 12 13 14 15 16 17 18 19 20 21
000
FTUS45 KGGW 191100
TAFOLF
TAF
KOLF 191123Z 1912/2012 25009KT P6SM SCT100
     FM191400 28012KT P6SM SCT100
     FM191800 30016KT P6SM BKN070
     FM200200 VRB04KT P6SM SCT100=

USA.gov is the U.S. government's official web portal to all federal, state and local government web resources and services.